Paradise, MI (49768)

5:48 AM EDT on October 20, 2014 (GMT -0400)
RAWS RACO MI US | Change Station
CLOSE
Current Station
Personal Weather Station
Location: Kinross, MI
Elevation: 750 ft
Nearby Weather Stations

Elev 750 ft 46.36 °N, 84.80 °W | Updated 44 minutes ago

Overcast
Overcast
44 °F
Feels Like 44 °F
N
1
Wind Variable Wind from SSW
Gusts 5.0 mph

Today
High -- | Low -- °F
--% Chance of Precip.
Yesterday
High -- | Low -- °F
Precip. -- in
8:05 AM 6:44 PM
Waning Crescent, 12% visible
Pressure 29.71 in
Visibility 10.0 miles
Clouds Overcast 3800 ft
Windchill 44 °F
Dew Point 43 °F
Humidity 98%
Rainfall 0.10 in
Snow Depth Not available.
UV 0 out of 12
Pollen .30 out of 12
PM2.5 Good
Flu Activity Sporadic
METAR KERY 200934Z AUTO 25005KT 10SM OVC038 08/07 A2971 RMK AO2 T00760071

More Conditions Fewer Conditions

Pressure 29.71 in
Visibility 10.0 miles
Clouds Overcast 3800 ft
Windchill 44 °F
Dew Point 43 °F
Humidity 98%
Rainfall 0.10 in
Snow Depth Not available.
UV 0 out of 12
Pollen .30 out of 12
PM2.5 Good
Flu Activity Sporadic
METAR KERY 200934Z AUTO 25005KT 10SM OVC038 08/07 A2971 RMK AO2 T00760071

More Conditions Fewer Conditions

Nowcast | as of 5:00 am EDT on October 20, 2014

At 6 am...cloudy. Isolated rain showers and patchy drizzle. Temperature 45. Light winds. At 8 am...cloudy. Isolated rain showers and patchy drizzle. Temperature 45. Light winds. At 10 am...cloudy. Isolated rain showers and patchy drizzle. Temperature 47. Light winds. At 12 PM...cloudy. Isolated rain showers and patchy drizzle. Temperature 49. Northwest winds 7 mph.

×

10-Day Weather Forecast

Almanac

Astronomy

Oct. 20, 2014 Rise Set
Actual Time 8:05 AM EDT 6:44 PM EDT
Civil Twilight 7:34 AM EDT 7:15 PM EDT
Nautical Twilight 6:59 AM EDT 7:50 PM EDT
Astronomical Twilight 6:24 AM EDT 8:25 PM EDT
Moon 4:41 AM EDT 5:16 PM EDT
Length of Visible Light 11h 41m
Length of Day
10h 39m
Waning Crescent, 12% of the Moon is Illuminated
Today
Waning Crescent
Oct 23
New
Oct 30
First Quarter
Nov 6
Full
Nov 14
Last Quarter

Today's Extremes

State Highs State Lows

Community

WunderPhotos

Upload Photos

1,763,325 photos uploaded!

Nearby

Air Quality

  Air Quality AQ Index Pollutant
Yesterday Good
PM2.5
Current Good
PM2.5
Monday Good
PM2.5

Snow Depth

Station Depth Elevation
No new snow has been reported.

Earthquake Activity

City Distance Mag. Time & Date
No recent earthquake activity has been reported nearby.
Minimum magnitude displayed is 2.5.

Coastal Water Temperatures

Place Temperature
S W Pier, MI 52.0 °F
Little Rapids, MI 52.0 °F
Rock Cut, MI 50.0 °F
West Neebish, MI 52.0 °F

Nearby Weather Stations